Time;durP1;ratioP1;P1;durP2;ratioP2;P2;SDS_P1;SDS_P2;PMS_P1;PMS_P2;Temp;Humidity;BMP_temperature;BMP_pressure;BME280_temperature;BME280_humidity;BME280_pressure;Samples;Min_cycle;Max_cycle;Signal;HPM_P1;HPM_P2
2023/10/20 00:00:06;;;;;;;1.10;1.10;;;;;;;10.03;100.00;94200.75;5131826;27;20205;-77
2023/10/20 00:02:34;;;;;;;0.47;0.47;;;;;;;10.04;100.00;94207.75;5131707;27;20296;-77
2023/10/20 00:05:05;;;;;;;0.30;0.30;;;;;;;10.01;100.00;94203.78;5117726;27;20243;-77
2023/10/20 00:07:32;;;;;;;0.30;0.30;;;;;;;10.03;100.00;94190.72;5132007;27;20200;-77
2023/10/20 00:10:01;;;;;;;0.20;0.20;;;;;;;10.05;100.00;94193.88;5131951;27;20711;-77
2023/10/20 00:12:28;;;;;;;0.32;0.32;;;;;;;10.02;100.00;94188.34;5131830;27;20671;-76
2023/10/20 00:14:55;;;;;;;0.60;0.60;;;;;;;10.01;100.00;94197.59;5131486;27;20205;-77
2023/10/20 00:17:22;;;;;;;0.43;0.43;;;;;;;9.95;100.00;94173.47;5119533;27;20250;-76
2023/10/20 00:19:49;;;;;;;0.65;0.65;;;;;;;10.03;100.00;94179.09;5131675;27;20216;-76
2023/10/20 00:22:16;;;;;;;0.30;0.30;;;;;;;10.07;100.00;94169.19;5131558;27;20209;-76
2023/10/20 00:24:45;;;;;;;0.45;0.45;;;;;;;10.05;100.00;94179.56;5123067;27;20256;-76
2023/10/20 00:27:14;;;;;;;0.43;0.43;;;;;;;10.15;100.00;94171.00;5113028;27;20333;-76
2023/10/20 00:29:41;;;;;;;0.50;0.50;;;;;;;10.12;100.00;94169.75;5122679;27;20200;-76
2023/10/20 00:32:10;;;;;;;0.88;0.88;;;;;;;10.07;100.00;94170.00;5127185;27;20593;-76
2023/10/20 00:34:37;;;;;;;0.63;0.63;;;;;;;9.93;100.00;94162.19;5131230;27;20205;-76
2023/10/20 00:37:04;;;;;;;0.45;0.45;;;;;;;10.04;100.00;94165.25;5130932;27;20212;-76
2023/10/20 00:39:31;;;;;;;0.20;0.20;;;;;;;10.06;100.00;94167.63;5131507;27;20229;-76
2023/10/20 00:41:58;;;;;;;0.20;0.20;;;;;;;9.72;100.00;94164.13;5131195;27;20719;-76
2023/10/20 00:44:26;;;;;;;0.20;0.20;;;;;;;9.79;100.00;94169.81;5131239;28;20228;-75
2023/10/20 00:46:53;;;;;;;0.43;0.43;;;;;;;9.88;100.00;94150.78;5113928;28;20257;-76
2023/10/20 00:49:21;;;;;;;0.20;0.20;;;;;;;9.88;100.00;94154.28;5121823;28;20288;-76
2023/10/20 00:51:48;;;;;;;0.50;0.32;;;;;;;9.85;100.00;94151.44;5131255;28;20212;-76
2023/10/20 00:54:16;;;;;;;0.45;0.45;;;;;;;9.73;100.00;94117.03;5119910;28;20205;-76
2023/10/20 00:56:44;;;;;;;0.55;0.55;;;;;;;9.69;100.00;94154.00;5129050;28;20295;-76
2023/10/20 00:59:11;;;;;;;0.60;0.60;;;;;;;9.76;100.00;94154.25;5131217;28;20197;-76
2023/10/20 01:01:39;;;;;;;1.50;1.40;;;;;;;9.59;100.00;94163.31;5131013;28;20561;-76
2023/10/20 01:04:07;;;;;;;0.50;0.50;;;;;;;9.66;100.00;94170.88;5131014;28;20232;-76
2023/10/20 01:06:34;;;;;;;3.75;1.88;;;;;;;9.54;100.00;94160.03;5133397;27;20205;-76
2023/10/20 01:09:01;;;;;;;0.50;0.50;;;;;;;9.65;100.00;94155.78;5135182;27;20209;-76
2023/10/20 01:11:28;;;;;;;0.30;0.30;;;;;;;9.60;100.00;94155.97;5121540;27;20238;-76
2023/10/20 01:13:55;;;;;;;0.50;0.50;;;;;;;9.62;100.00;94161.84;5134986;27;20205;-76
2023/10/20 01:16:23;;;;;;;0.52;0.52;;;;;;;9.72;100.00;94150.59;5130434;27;20204;-75
2023/10/20 01:18:51;;;;;;;0.20;0.20;;;;;;;9.70;100.00;94160.19;5127878;27;20292;-76
2023/10/20 01:21:18;;;;;;;1.02;0.93;;;;;;;9.70;100.00;94149.38;5134988;27;20232;-76
2023/10/20 01:23:45;;;;;;;0.20;0.20;;;;;;;9.71;100.00;94151.72;5134656;27;20213;-76
2023/10/20 01:26:13;;;;;;;0.30;0.30;;;;;;;9.71;100.00;94146.31;5121459;27;20270;-76
2023/10/20 01:28:40;;;;;;;0.68;0.68;;;;;;;9.60;100.00;94145.16;5134899;27;20213;-76
2023/10/20 01:31:07;;;;;;;0.30;0.30;;;;;;;9.45;100.00;94149.28;5135100;27;20212;-76
2023/10/20 01:33:34;;;;;;;0.55;0.55;;;;;;;9.45;100.00;94143.06;5134691;27;20228;-77
2023/10/20 01:36:01;;;;;;;0.52;0.50;;;;;;;9.48;100.00;94143.22;5134520;27;20201;-76
2023/10/20 01:38:28;;;;;;;0.43;0.43;;;;;;;9.47;100.00;94141.63;5121072;27;20210;-76
2023/10/20 01:40:55;;;;;;;0.35;0.35;;;;;;;9.42;100.00;94136.44;5124066;27;20740;-76
2023/10/20 01:43:23;;;;;;;4.90;2.25;;;;;;;9.43;100.00;94119.06;5113968;27;20209;-76
2023/10/20 01:45:50;;;;;;;2.60;1.52;;;;;;;9.41;100.00;94117.84;5134613;27;20591;-76
2023/10/20 01:48:17;;;;;;;0.25;0.25;;;;;;;9.40;100.00;94118.97;5117596;27;20254;-76
2023/10/20 01:50:45;;;;;;;0.90;0.85;;;;;;;9.37;100.00;94116.94;5132770;27;20546;-76
2023/10/20 01:53:11;;;;;;;0.20;0.20;;;;;;;9.39;100.00;94122.78;5134903;27;20641;-76
2023/10/20 01:55:40;;;;;;;1.33;1.23;;;;;;;9.31;100.00;94110.94;5129913;27;20232;-76
2023/10/20 01:58:07;;;;;;;0.20;0.20;;;;;;;9.40;100.00;94114.34;5132467;27;20197;-76
2023/10/20 02:00:36;;;;;;;0.88;0.88;;;;;;;9.15;100.00;94118.88;5115007;27;20213;-76
2023/10/20 02:03:04;;;;;;;0.22;0.22;;;;;;;9.25;100.00;94123.88;5112656;27;20227;-76
2023/10/20 02:05:30;;;;;;;0.80;0.80;;;;;;;9.31;100.00;94121.72;5110977;28;20230;-76
2023/10/20 02:07:57;;;;;;;0.43;0.43;;;;;;;9.08;100.00;94129.41;5114802;27;20205;-76
2023/10/20 02:10:25;;;;;;;1.08;0.73;;;;;;;8.99;100.00;94142.19;5128752;27;20205;-76
2023/10/20 02:12:51;;;;;;;0.70;0.70;;;;;;;8.87;100.00;94144.84;5115214;27;20212;-76
2023/10/20 02:15:18;;;;;;;0.40;0.40;;;;;;;9.02;100.00;94136.13;5124415;27;20212;-76
2023/10/20 02:17:47;;;;;;;0.47;0.47;;;;;;;8.91;100.00;94140.34;5117937;27;20226;-76
2023/10/20 02:20:15;;;;;;;0.30;0.30;;;;;;;9.07;100.00;94119.72;5123262;27;20250;-76
2023/10/20 02:22:43;;;;;;;0.20;0.20;;;;;;;9.26;100.00;94114.66;5115587;27;20205;-76
2023/10/20 02:25:10;;;;;;;0.25;0.25;;;;;;;9.25;100.00;94107.66;5126931;27;20228;-76
2023/10/20 02:27:39;;;;;;;0.35;0.35;;;;;;;9.21;100.00;94106.72;5126982;27;20202;-76
2023/10/20 02:30:08;;;;;;;1.10;1.02;;;;;;;9.06;100.00;94120.03;5116201;27;20201;-78
2023/10/20 02:32:35;;;;;;;0.20;0.20;;;;;;;8.95;100.00;94135.88;5116277;27;20229;-78
2023/10/20 02:35:04;;;;;;;3.88;2.10;;;;;;;9.07;100.00;94138.63;5130077;27;20201;-78
2023/10/20 02:37:31;;;;;;;4.85;0.82;;;;;;;8.96;100.00;94132.03;5097124;28;20212;-78
2023/10/20 02:39:58;;;;;;;7.57;1.02;;;;;;;8.96;100.00;94123.94;5119432;27;20241;-78
2023/10/20 02:42:25;;;;;;;0.57;0.57;;;;;;;8.88;100.00;94141.00;5117328;27;20584;-78
2023/10/20 02:44:52;;;;;;;0.52;0.52;;;;;;;8.83;100.00;94146.59;5110282;28;20236;-79
2023/10/20 02:47:19;;;;;;;1.35;0.63;;;;;;;8.91;100.00;94129.53;5110870;28;20198;-76
2023/10/20 02:49:46;;;;;;;1.65;1.05;;;;;;;8.99;100.00;94136.78;5108461;27;20206;-76
2023/10/20 02:52:15;;;;;;;0.43;0.43;;;;;;;8.89;100.00;94131.75;5113427;27;20519;-76
2023/10/20 02:54:42;;;;;;;0.20;0.20;;;;;;;8.98;100.00;94124.41;5117317;27;20212;-77
2023/10/20 02:57:09;;;;;;;2.38;0.95;;;;;;;9.04;100.00;94128.47;5125400;27;20205;-76
2023/10/20 02:59:36;;;;;;;0.30;0.30;;;;;;;8.92;100.00;94128.41;5127641;27;20209;-76
2023/10/20 03:02:03;;;;;;;0.52;0.52;;;;;;;8.83;100.00;94125.78;5104452;28;20202;-76
2023/10/20 03:04:31;;;;;;;0.52;0.52;;;;;;;8.50;100.00;94124.88;5108000;27;20297;-76
2023/10/20 03:06:58;;;;;;;0.30;0.30;;;;;;;8.73;100.00;94120.00;5120822;27;20229;-76
2023/10/20 03:09:26;;;;;;;0.45;0.45;;;;;;;8.77;100.00;94129.78;5127783;27;20204;-76
2023/10/20 03:11:53;;;;;;;0.30;0.30;;;;;;;8.76;100.00;94122.81;5106140;27;20206;-76
2023/10/20 03:14:20;;;;;;;0.32;0.32;;;;;;;8.73;100.00;94117.28;5122914;27;20201;-77
2023/10/20 03:16:47;;;;;;;0.20;0.20;;;;;;;8.61;100.00;94125.31;5120898;27;20243;-76
2023/10/20 03:19:14;;;;;;;0.65;0.65;;;;;;;8.73;100.00;94111.88;5112421;27;20205;-76
2023/10/20 03:21:42;;;;;;;0.20;0.20;;;;;;;8.69;100.00;94127.16;5122812;27;20860;-76
2023/10/20 03:24:10;;;;;;;0.20;0.20;;;;;;;8.50;100.00;94101.38;5114643;27;20198;-77
2023/10/20 03:26:38;;;;;;;0.30;0.30;;;;;;;8.57;100.00;94108.19;5123406;27;20258;-76
2023/10/20 03:29:05;;;;;;;0.20;0.20;;;;;;;8.63;100.00;94109.56;5118801;27;20204;-76
2023/10/20 03:31:33;;;;;;;1.27;0.60;;;;;;;8.69;100.00;94109.03;5125788;27;20273;-77
2023/10/20 03:34:00;;;;;;;0.32;0.32;;;;;;;8.66;100.00;94111.59;5125714;27;20215;-76
2023/10/20 03:36:27;;;;;;;4.55;2.83;;;;;;;8.63;100.00;94102.25;5125260;27;20206;-77
2023/10/20 03:38:54;;;;;;;0.20;0.20;;;;;;;8.56;100.00;94118.19;5121047;27;20291;-76
2023/10/20 03:41:22;;;;;;;0.25;0.25;;;;;;;8.42;100.00;94102.22;5127513;27;20643;-76
2023/10/20 03:43:50;;;;;;;1.23;1.00;;;;;;;8.41;100.00;94097.16;5122060;27;20224;-77
2023/10/20 03:46:18;;;;;;;0.30;0.30;;;;;;;8.26;100.00;94093.06;5115294;27;20286;-76
2023/10/20 03:48:45;;;;;;;0.35;0.35;;;;;;;8.27;100.00;94105.44;5117119;27;20291;-76
2023/10/20 03:51:12;;;;;;;1.55;1.10;;;;;;;8.29;100.00;94107.81;5131349;27;20233;-75
2023/10/20 03:53:47;;;;;;;1.10;1.02;;;;;;;8.35;100.00;94091.13;5120293;27;20241;-76
2023/10/20 03:56:18;;;;;;;0.20;0.20;;;;;;;8.46;100.00;94084.28;5118644;27;20564;-76
2023/10/20 03:58:46;;;;;;;0.40;0.40;;;;;;;8.41;100.00;94079.06;5101167;27;20228;-76
2023/10/20 04:01:14;;;;;;;0.43;0.43;;;;;;;8.36;100.00;94086.53;5131481;27;20204;-77
2023/10/20 04:03:43;;;;;;;3.90;2.55;;;;;;;8.46;100.00;94073.47;5131990;27;20522;-76
2023/10/20 04:06:11;;;;;;;3.17;2.15;;;;;;;8.44;100.00;94083.81;5131366;27;20256;-77
2023/10/20 04:08:38;;;;;;;3.38;2.10;;;;;;;8.33;100.00;94082.59;5130724;27;20220;-77
2023/10/20 04:11:05;;;;;;;3.35;2.00;;;;;;;8.19;100.00;94087.41;5132017;27;20213;-76
2023/10/20 04:13:32;;;;;;;3.53;2.00;;;;;;;8.26;100.00;94076.88;5132329;27;20212;-78
2023/10/20 04:15:58;;;;;;;3.97;2.58;;;;;;;8.38;100.00;94090.50;5130383;27;20281;-78
2023/10/20 04:18:32;;;;;;;3.97;2.00;;;;;;;8.52;100.00;94077.56;5111174;28;20213;-77
2023/10/20 04:20:59;;;;;;;0.20;0.20;;;;;;;8.47;100.00;94096.63;5129380;27;20200;-77
2023/10/20 04:23:26;;;;;;;0.20;0.20;;;;;;;8.40;100.00;94103.66;5131297;27;20205;-78
2023/10/20 04:25:53;;;;;;;0.47;0.47;;;;;;;8.36;100.00;94100.81;5117164;27;20224;-77
2023/10/20 04:28:28;;;;;;;0.28;0.28;;;;;;;8.38;100.00;94111.28;5131876;27;20635;-77
2023/10/20 04:42:43;;;;;;;3.70;0.75;;;;;;;8.40;100.00;94096.38;5130888;27;20249;-77
2023/10/20 04:45:19;;;;;;;0.47;0.47;;;;;;;8.49;100.00;94115.19;5130701;27;20258;-76
2023/10/20 04:53:53;;;;;;;0.20;0.20;;;;;;;8.40;100.00;94088.28;5111537;28;20231;-77
2023/10/20 04:56:37;;;;;;;0.32;0.32;;;;;;;8.59;100.00;94105.94;5131243;28;20293;-78
2023/10/20 04:59:10;;;;;;;0.30;0.30;;;;;;;8.70;100.00;94090.94;5131446;28;20207;-78
2023/10/20 05:01:43;;;;;;;0.25;0.25;;;;;;;8.73;100.00;94111.88;5118316;28;20946;-78
2023/10/20 05:04:22;;;;;;;0.40;0.40;;;;;;;8.93;100.00;94105.69;5131084;28;20201;-78
2023/10/20 05:06:58;;;;;;;0.30;0.30;;;;;;;8.98;100.00;94102.81;5106280;28;20272;-78
2023/10/20 05:09:26;;;;;;;0.40;0.40;;;;;;;9.24;100.00;94106.06;5131290;28;20317;-77
2023/10/20 05:11:53;;;;;;;0.85;0.52;;;;;;;9.22;100.00;94102.13;5131554;28;20918;-77
2023/10/20 05:14:21;;;;;;;0.30;0.30;;;;;;;9.56;100.00;94088.28;5131076;28;20261;-77
2023/10/20 05:16:48;;;;;;;0.20;0.20;;;;;;;10.20;100.00;94108.59;5122890;28;20209;-77
2023/10/20 05:19:16;;;;;;;0.65;0.65;;;;;;;10.44;100.00;94108.56;5113483;28;20205;-74
2023/10/20 05:21:43;;;;;;;0.30;0.30;;;;;;;10.48;100.00;94097.88;5130766;28;20212;-74
2023/10/20 05:24:11;;;;;;;0.20;0.20;;;;;;;10.73;100.00;94094.00;5116680;28;20240;-77
2023/10/20 05:26:39;;;;;;;0.20;0.20;;;;;;;10.92;100.00;94107.75;5131417;28;20588;-76
2023/10/20 05:29:07;;;;;;;0.30;0.30;;;;;;;11.03;100.00;94118.91;5130495;28;20618;-76
2023/10/20 05:31:34;;;;;;;0.38;0.38;;;;;;;11.66;100.00;94124.53;5130905;28;20209;-75
2023/10/20 05:34:01;;;;;;;0.50;0.50;;;;;;;12.65;100.00;94118.94;5130681;28;20208;-75
2023/10/20 05:36:28;;;;;;;2.30;0.65;;;;;;;13.02;100.00;94124.81;5131146;28;20246;-78
2023/10/20 05:38:55;;;;;;;0.77;0.77;;;;;;;13.87;100.00;94131.25;5130895;28;20727;-76
2023/10/20 05:41:23;;;;;;;0.40;0.40;;;;;;;14.60;100.00;94124.81;5131381;28;20684;-75
2023/10/20 05:43:52;;;;;;;0.43;0.43;;;;;;;14.76;100.00;94128.16;5130338;28;20653;-75
2023/10/20 05:46:19;;;;;;;0.93;0.70;;;;;;;14.92;100.00;94120.59;5118028;28;20268;-77
2023/10/20 05:48:46;;;;;;;1.38;1.00;;;;;;;15.51;100.00;94116.34;5115959;28;20201;-77
2023/10/20 05:51:13;;;;;;;0.10;0.10;;;;;;;16.06;100.00;94111.16;5130106;28;20212;-75
2023/10/20 05:53:40;;;;;;;4.82;3.13;;;;;;;16.19;100.00;94120.66;5132720;27;20638;-74
2023/10/20 05:56:07;;;;;;;1.33;1.05;;;;;;;16.78;100.00;94105.22;5134144;27;20620;-76
2023/10/20 05:58:37;;;;;;;1.13;1.00;;;;;;;17.19;100.00;94105.09;5134766;27;20724;-75
2023/10/20 06:01:06;;;;;;;0.40;0.40;;;;;;;17.35;100.00;94108.31;5134347;27;20277;-75
2023/10/20 06:03:33;;;;;;;0.63;0.63;;;;;;;16.99;100.00;94101.81;5134489;27;20204;-75
2023/10/20 06:06:01;;;;;;;0.50;0.50;;;;;;;17.33;100.00;94105.16;5120061;27;20588;-77
2023/10/20 06:08:29;;;;;;;0.47;0.47;;;;;;;17.61;100.00;94104.53;5134316;27;20213;-74
2023/10/20 06:11:02;;;;;;;1.20;1.10;;;;;;;17.60;100.00;94109.22;5134192;27;20733;-75
2023/10/20 06:13:29;;;;;;;0.40;0.40;;;;;;;18.45;100.00;94103.97;5134384;27;20203;-75
2023/10/20 06:15:59;;;;;;;0.73;0.68;;;;;;;18.60;100.00;94099.31;5133149;27;20560;-76
2023/10/20 06:18:27;;;;;;;0.30;0.30;;;;;;;18.81;100.00;94098.56;5123964;27;20622;-76
2023/10/20 06:20:53;;;;;;;0.73;0.73;;;;;;;19.47;64.51;94118.06;5133963;27;20209;-77
2023/10/20 06:23:20;;;;;;;1.67;1.10;;;;;;;18.40;65.16;94120.84;5134026;27;20258;-77
2023/10/20 06:25:47;;;;;;;0.77;0.77;;;;;;;18.96;65.51;94116.59;5120105;27;20693;-75
2023/10/20 06:28:14;;;;;;;1.08;1.05;;;;;;;19.87;62.29;94108.53;5133709;27;20236;-75
2023/10/20 06:30:44;;;;;;;0.70;0.70;;;;;;;20.09;60.07;94104.50;5133825;27;20208;-74
2023/10/20 06:33:17;;;;;;;0.57;0.57;;;;;;;20.07;60.66;94101.41;5133741;27;20265;-76
2023/10/20 06:35:52;;;;;;;1.05;0.95;;;;;;;19.32;62.00;94100.84;5134042;27;20224;-74
2023/10/20 06:38:23;;;;;;;0.63;0.63;;;;;;;19.48;62.31;94103.16;5134201;27;20580;-75
2023/10/20 06:40:50;;;;;;;1.15;1.08;;;;;;;19.43;63.07;94095.31;5134061;27;20312;-76
2023/10/20 06:43:19;;;;;;;0.50;0.50;;;;;;;19.11;63.16;94096.19;5133660;27;20261;-76
2023/10/20 06:45:46;;;;;;;1.08;1.00;;;;;;;19.06;64.31;94093.81;5134003;27;20301;-75
2023/10/20 06:48:16;;;;;;;0.60;0.60;;;;;;;19.07;64.80;94095.41;5119558;27;20206;-75
2023/10/20 06:50:43;;;;;;;1.08;0.82;;;;;;;18.86;64.09;94100.88;5124578;27;20239;-76
2023/10/20 06:53:10;;;;;;;6.32;1.52;;;;;;;18.55;66.32;94104.41;5126372;27;20201;-75
2023/10/20 06:55:36;;;;;;;1.42;1.23;;;;;;;18.28;67.66;94109.47;5122093;27;20209;-75
2023/10/20 06:58:03;;;;;;;1.25;1.10;;;;;;;18.18;67.56;94105.50;5119481;27;20213;-76
2023/10/20 07:00:30;;;;;;;1.38;0.80;;;;;;;18.15;67.62;94111.00;5133235;27;20235;-76
2023/10/20 07:02:57;;;;;;;4.85;3.13;;;;;;;18.79;66.22;94106.41;5133430;27;20205;-77
2023/10/20 07:05:25;;;;;;;0.85;0.85;;;;;;;18.91;66.67;94107.97;5133366;27;20201;-76
2023/10/20 07:07:55;;;;;;;0.47;0.47;;;;;;;18.74;66.19;94109.53;5131499;27;20274;-76
2023/10/20 07:10:24;;;;;;;1.52;1.42;;;;;;;18.16;68.74;94112.56;5112681;28;20198;-77
2023/10/20 07:12:51;;;;;;;7.35;2.47;;;;;;;18.51;67.43;94120.06;5130041;27;20205;-75
2023/10/20 07:15:18;;;;;;;2.90;2.50;;;;;;;18.31;67.77;94114.94;5124047;27;20201;-75
2023/10/20 07:17:44;;;;;;;1.45;1.00;;;;;;;18.08;67.79;94100.78;5116859;27;20204;-75
2023/10/20 07:20:12;;;;;;;0.70;0.70;;;;;;;18.02;67.29;94107.84;5133153;27;20630;-78
2023/10/20 07:22:46;;;;;;;2.67;1.33;;;;;;;17.82;70.30;94103.84;5132660;27;20209;-79
2023/10/20 07:25:13;;;;;;;0.90;0.80;;;;;;;17.57;69.90;94109.97;5121645;27;20572;-79
2023/10/20 07:27:40;;;;;;;6.65;2.85;;;;;;;17.07;71.53;94106.19;5130534;27;20665;-79
2023/10/20 07:30:10;;;;;;;3.05;2.05;;;;;;;16.70;72.77;94122.72;5132688;27;20211;-79
2023/10/20 07:32:37;;;;;;;3.30;2.47;;;;;;;16.64;73.06;94113.31;5127323;27;20234;-79
2023/10/20 07:35:05;;;;;;;3.70;2.45;;;;;;;17.00;73.34;94108.88;5124540;27;20208;-80
2023/10/20 07:37:33;;;;;;;3.67;2.63;;;;;;;17.37;72.47;94122.38;5118913;27;20602;-79
2023/10/20 07:40:01;;;;;;;2.88;1.80;;;;;;;16.94;72.04;94127.59;5132588;27;20577;-79
2023/10/20 07:42:32;;;;;;;2.42;1.92;;;;;;;17.14;72.12;94130.06;5107707;28;20210;-79
2023/10/20 07:45:00;;;;;;;3.25;2.10;;;;;;;17.21;71.84;94130.91;5125365;27;20211;-79
2023/10/20 07:47:27;;;;;;;4.07;2.63;;;;;;;16.90;71.93;94135.00;5100361;28;20582;-78
2023/10/20 07:49:57;;;;;;;2.83;2.03;;;;;;;16.68;73.34;94125.03;5113392;27;20564;-79
2023/10/20 07:52:24;;;;;;;0.43;0.43;;;;;;;16.68;73.57;94127.75;5132507;27;20234;-79
2023/10/20 07:54:51;;;;;;;0.52;0.50;;;;;;;16.47;74.12;94113.91;5132365;27;20211;-79
2023/10/20 07:57:20;;;;;;;0.77;0.77;;;;;;;16.88;73.50;94122.84;5132198;27;20205;-79
2023/10/20 07:59:47;;;;;;;0.90;0.70;;;;;;;17.13;72.69;94123.03;5129867;27;20258;-78
2023/10/20 08:02:14;;;;;;;1.58;1.02;;;;;;;17.87;70.68;94119.91;5121670;27;20205;-78
2023/10/20 08:04:41;;;;;;;1.45;1.02;;;;;;;18.16;69.18;94116.09;5132480;27;20588;-78
2023/10/20 08:07:09;;;;;;;1.70;0.70;;;;;;;18.37;68.52;94118.88;5132018;27;20707;-78
2023/10/20 08:09:37;;;;;;;5.53;2.92;;;;;;;18.62;66.59;94123.63;5132383;27;20254;-76
2023/10/20 08:12:04;;;;;;;4.38;2.40;;;;;;;18.09;67.81;94107.84;5131784;27;20637;-74
2023/10/20 08:14:34;;;;;;;5.50;2.67;;;;;;;18.24;68.72;94112.19;5110657;27;20563;-74
2023/10/20 08:17:03;;;;;;;3.42;2.20;;;;;;;18.50;68.09;94104.78;5090427;28;20198;-79
2023/10/20 08:19:30;;;;;;;1.70;1.58;;;;;;;18.68;68.51;94100.91;5091453;28;20210;-81
2023/10/20 08:21:57;;;;;;;0.30;0.30;;;;;;;18.46;67.45;94100.06;5091072;28;20279;-77
2023/10/20 08:24:26;;;;;;;0.40;0.40;;;;;;;18.57;66.60;94110.28;5091027;28;20264;-79
2023/10/20 08:26:53;;;;;;;3.70;1.90;;;;;;;18.61;67.27;94111.09;5090884;28;20253;-78
2023/10/20 08:29:20;;;;;;;1.58;1.02;;;;;;;18.20;67.65;94114.13;5091067;28;20589;-78
2023/10/20 08:31:48;;;;;;;3.15;1.98;;;;;;;18.01;67.97;94117.22;5090867;28;20227;-77
2023/10/20 08:34:15;;;;;;;4.05;2.22;;;;;;;18.10;67.79;94114.91;5091151;28;20605;-78
2023/10/20 08:36:43;;;;;;;2.97;1.70;;;;;;;18.25;67.55;94105.53;5091348;28;20202;-78
2023/10/20 08:39:17;;;;;;;3.33;2.40;;;;;;;18.22;67.45;94100.81;5090543;28;20236;-77
2023/10/20 08:41:44;;;;;;;1.45;0.82;;;;;;;18.43;67.15;94100.88;5090940;28;20186;-77
2023/10/20 08:44:11;;;;;;;4.03;2.15;;;;;;;18.17;67.94;94084.78;5090993;28;20654;-75
2023/10/20 08:46:40;;;;;;;2.85;1.80;;;;;;;18.28;67.02;94098.50;5091010;28;20317;-74
2023/10/20 08:49:09;;;;;;;3.60;2.00;;;;;;;18.38;66.64;94087.53;5090653;28;20238;-74
2023/10/20 08:51:38;;;;;;;2.08;1.65;;;;;;;18.73;66.03;94092.28;5090600;28;20206;-74
2023/10/20 08:54:10;;;;;;;2.10;1.65;;;;;;;18.76;65.31;94090.72;5090398;28;20233;-74
2023/10/20 08:56:37;;;;;;;3.45;1.92;;;;;;;18.46;66.14;94083.63;5090990;28;20547;-74
2023/10/20 08:59:05;;;;;;;2.97;1.95;;;;;;;18.47;66.51;94090.66;5090646;28;20198;-74
2023/10/20 09:01:33;;;;;;;3.38;2.00;;;;;;;18.27;67.51;94084.00;5090508;28;20198;-75
2023/10/20 09:04:00;;;;;;;2.38;1.85;;;;;;;18.52;66.90;94080.50;5090731;28;20545;-74
2023/10/20 09:06:30;;;;;;;2.70;1.80;;;;;;;18.84;65.92;94086.81;5090972;28;20210;-74
2023/10/20 09:08:59;;;;;;;3.97;2.08;;;;;;;18.65;65.87;94087.97;5090171;28;20199;-76
2023/10/20 09:11:30;;;;;;;3.50;2.20;;;;;;;18.96;65.44;94089.16;5090513;28;20198;-76
2023/10/20 09:13:58;;;;;;;5.20;1.95;;;;;;;19.29;64.85;94100.84;5090289;28;20194;-76
2023/10/20 09:16:26;;;;;;;3.47;1.90;;;;;;;19.50;63.47;94089.84;5090510;28;20256;-74
2023/10/20 09:18:54;;;;;;;4.35;2.28;;;;;;;19.57;63.49;94078.81;5090589;28;20206;-75
2023/10/20 09:21:22;;;;;;;3.03;2.13;;;;;;;19.52;62.93;94073.75;5090512;28;20259;-75
2023/10/20 09:23:58;;;;;;;3.10;2.13;;;;;;;19.68;62.20;94079.56;5090915;28;20659;-75
2023/10/20 09:26:28;;;;;;;2.50;1.55;;;;;;;19.86;62.50;94063.78;5091218;28;20616;-74
2023/10/20 09:28:56;;;;;;;2.95;1.80;;;;;;;20.03;62.01;94062.13;5094645;28;20666;-75
2023/10/20 09:31:24;;;;;;;2.35;1.55;;;;;;;19.64;62.25;94056.81;5093930;28;20202;-76
2023/10/20 09:33:51;;;;;;;3.58;2.05;;;;;;;20.01;62.30;94052.69;5094288;28;20196;-75
2023/10/20 09:36:22;;;;;;;3.67;1.85;;;;;;;19.29;61.94;94049.44;5094326;28;20205;-75
2023/10/20 09:38:52;;;;;;;5.05;1.38;;;;;;;18.94;62.66;94047.56;5094324;28;20191;-74
2023/10/20 09:41:23;;;;;;;2.65;1.77;;;;;;;18.91;63.44;94048.34;5094003;28;20663;-74
2023/10/20 09:43:53;;;;;;;3.63;1.80;;;;;;;19.11;63.57;94041.28;5094208;28;20248;-74
2023/10/20 09:46:32;;;;;;;2.65;1.60;;;;;;;19.44;63.19;94030.94;5093868;28;20183;-75
2023/10/20 09:49:05;;;;;;;4.25;2.00;;;;;;;20.09;62.51;94022.00;5094092;28;20583;-76
2023/10/20 09:51:33;;;;;;;2.85;1.67;;;;;;;20.62;60.21;94020.09;5094117;28;20186;-74
2023/10/20 09:54:01;;;;;;;2.45;1.60;;;;;;;20.49;58.95;94034.34;5093743;28;20574;-74
2023/10/20 09:56:30;;;;;;;5.07;2.05;;;;;;;20.72;58.16;94030.22;5093821;28;20300;-74
2023/10/20 09:59:00;;;;;;;2.65;1.50;;;;;;;21.11;57.62;94022.38;5093807;28;20298;-74
2023/10/20 10:01:27;;;;;;;2.60;1.60;;;;;;;21.21;57.04;94023.47;5093792;28;20592;-75
2023/10/20 10:04:03;;;;;;;4.10;1.83;;;;;;;21.17;56.47;94018.00;5093646;28;20210;-75
2023/10/20 10:06:36;;;;;;;2.67;1.48;;;;;;;21.38;57.06;94027.22;5094126;28;20233;-75
2023/10/20 10:09:05;;;;;;;2.25;1.52;;;;;;;21.34;56.31;94009.94;5110523;28;20265;-76
2023/10/20 10:11:41;;;;;;;2.63;1.73;;;;;;;21.15;57.34;94014.84;5114192;28;20677;-74
2023/10/20 10:14:08;;;;;;;3.15;1.73;;;;;;;20.92;57.48;93995.41;5114014;28;20494;-75
2023/10/20 10:16:51;;;;;;;2.83;1.77;;;;;;;21.05;58.51;93999.19;5114083;28;20201;-75
2023/10/20 10:19:19;;;;;;;4.00;1.90;;;;;;;20.99;58.61;94000.84;5114122;28;20216;-76
2023/10/20 10:21:50;;;;;;;3.22;1.73;;;;;;;21.20;57.99;93999.88;5113963;28;20543;-75
2023/10/20 10:24:18;;;;;;;1.95;1.38;;;;;;;21.23;57.53;93999.06;5113408;28;20188;-75
2023/10/20 10:26:51;;;;;;;1.92;1.45;;;;;;;21.02;56.94;93989.03;5113850;28;20224;-75
2023/10/20 10:29:19;;;;;;;2.78;1.80;;;;;;;21.19;56.20;93992.78;5113360;28;20599;-75
2023/10/20 10:31:47;;;;;;;1.10;0.90;;;;;;;21.19;55.46;93971.53;5113298;28;20240;-74
2023/10/20 10:34:14;;;;;;;2.67;1.58;;;;;;;20.89;57.25;93974.22;5113314;28;20233;-75
2023/10/20 10:36:48;;;;;;;2.35;1.40;;;;;;;20.76;57.72;93975.94;5113646;28;20213;-75
2023/10/20 10:39:22;;;;;;;4.78;1.30;;;;;;;20.78;57.87;93974.31;5112008;28;20570;-74
2023/10/20 10:41:53;;;;;;;1.52;1.20;;;;;;;21.09;57.22;93977.91;5113501;28;20201;-75
2023/10/20 10:44:21;;;;;;;1.75;1.13;;;;;;;21.40;57.24;93975.25;5113131;28;20330;-74
2023/10/20 10:46:51;;;;;;;2.35;1.58;;;;;;;21.67;55.51;93973.31;5113666;28;20805;-75
2023/10/20 10:49:18;;;;;;;2.15;1.40;;;;;;;21.99;55.45;93972.91;5094732;28;20688;-75
2023/10/20 10:51:46;;;;;;;2.42;1.42;;;;;;;22.02;54.91;93955.50;5113364;28;20202;-74
2023/10/20 10:54:14;;;;;;;1.90;1.20;;;;;;;22.14;54.49;93951.41;5112906;28;20205;-75
2023/10/20 10:56:42;;;;;;;1.20;1.10;;;;;;;22.42;54.78;93961.97;5113088;28;20220;-75
2023/10/20 10:59:12;;;;;;;2.08;1.08;;;;;;;22.53;52.99;93950.78;5111946;28;20225;-75
2023/10/20 11:01:40;;;;;;;2.53;1.20;;;;;;;22.67;52.17;93973.41;5112717;28;20197;-75
2023/10/20 11:04:09;;;;;;;1.20;1.10;;;;;;;22.57;51.62;93957.78;5109822;28;20217;-74
2023/10/20 11:06:37;;;;;;;2.92;1.25;;;;;;;22.57;53.33;93963.28;5112985;28;20198;-77
2023/10/20 11:09:10;;;;;;;2.60;1.77;;;;;;;22.39;52.46;93956.53;5112001;28;20800;-78
2023/10/20 11:11:42;;;;;;;4.85;2.00;;;;;;;22.60;51.47;93948.66;5112529;28;20213;-77
2023/10/20 11:14:11;;;;;;;1.52;1.05;;;;;;;22.91;51.23;93954.06;5109797;28;20192;-78
2023/10/20 11:16:38;;;;;;;1.48;0.98;;;;;;;22.95;50.99;93950.06;5112900;28;20623;-77
2023/10/20 11:19:05;;;;;;;2.45;1.30;;;;;;;22.80;49.85;93943.22;5111896;28;20197;-77
2023/10/20 11:21:44;;;;;;;3.30;1.30;;;;;;;22.83;49.80;93947.88;5112122;28;20216;-77
2023/10/20 11:24:11;;;;;;;4.18;1.88;;;;;;;22.78;48.74;93950.38;5110292;28;20189;-78
2023/10/20 11:26:38;;;;;;;1.70;1.10;;;;;;;22.83;49.35;93936.84;5112293;28;20670;-78
2023/10/20 11:29:08;;;;;;;1.05;0.98;;;;;;;22.78;49.20;93933.78;5111719;28;20537;-77
2023/10/20 11:31:37;;;;;;;1.75;1.05;;;;;;;22.84;48.40;93940.38;5111733;28;20197;-77
2023/10/20 11:34:04;;;;;;;1.65;1.20;;;;;;;23.12;48.68;93931.56;5111870;28;20190;-77
2023/10/20 11:36:31;;;;;;;1.83;1.60;;;;;;;23.35;47.75;93927.94;5111788;28;20292;-77
2023/10/20 11:38:58;;;;;;;3.38;1.30;;;;;;;23.45;47.63;93938.00;5111958;28;20292;-77
2023/10/20 11:41:24;;;;;;;1.48;0.88;;;;;;;23.50;47.51;93923.69;5108738;28;20650;-77
2023/10/20 11:43:51;;;;;;;2.83;1.30;;;;;;;23.83;47.35;93937.63;5112074;28;20194;-78
2023/10/20 11:46:18;;;;;;;1.83;1.20;;;;;;;24.16;46.08;93930.94;5111346;28;20202;-78
2023/10/20 11:48:47;;;;;;;2.22;1.45;;;;;;;24.19;45.46;93912.69;5111431;28;20218;-77
2023/10/20 11:51:14;;;;;;;1.75;1.25;;;;;;;24.11;45.08;93917.59;5110201;28;20309;-77
2023/10/20 11:53:41;;;;;;;1.60;1.20;;;;;;;24.23;44.82;93911.41;5111288;28;20258;-78